Fogang, China
Current Conditions -  °F | °C
As of 8:30 PM on Monday 26 Jan 2015 (Local Time) from ZGGG Reporting Station
Clear Clear  
Wind Chill: 64°   Ceiling: Unl
Heat Index: 64°   Visibility: 4mi
Dew Point: 59°   Wind: 2mph
Humidity: 83%   Direction: 110°ESE
Pressure: 30.03"   Gusts: NA
Location:  23.87°N, 113.53°E
Report Text: ZGGG 261230Z 11001MPS 6000 NSC 18/15 Q1017 NOSIG
Loading
Personal Weather Stations






























Interactive Weather Map New forecast layout! Learn more

10-Day Weather Forecast

Advertisements
Track Severe Weather on mobile